Time;durP1;ratioP1;P1;durP2;ratioP2;P2;SDS_P1;SDS_P2;PMS_P1;PMS_P2;Temp;Humidity;BMP_temperature;BMP_pressure;BME280_temperature;BME280_humidity;BME280_pressure;Samples;Min_cycle;Max_cycle;Signal;HPM_P1;HPM_P2
2022/06/27 00:00:11;;;;;;;2.90;2.30;;;20.70;99.90;;;;;;4129614;28;20966;-72
2022/06/27 00:02:12;;;;;;;4.05;2.15;;;20.70;99.90;;;;;;4130962;28;20038;-71
2022/06/27 00:04:12;;;;;;;3.20;2.30;;;20.70;99.90;;;;;;4128885;28;20049;-70
2022/06/27 00:06:13;;;;;;;3.05;2.30;;;20.70;99.90;;;;;;4130038;28;20065;-70
2022/06/27 00:08:14;;;;;;;3.00;2.50;;;20.80;99.90;;;;;;4129641;28;20039;-71
2022/06/27 00:10:15;;;;;;;4.13;2.60;;;20.70;99.90;;;;;;4129161;28;20122;-72
2022/06/27 00:12:15;;;;;;;3.90;2.55;;;20.80;99.90;;;;;;4130671;28;20109;-70
2022/06/27 00:14:16;;;;;;;3.60;2.40;;;20.80;99.90;;;;;;4130472;28;20448;-71
2022/06/27 00:16:17;;;;;;;2.80;2.10;;;20.80;99.90;;;;;;4129112;28;20054;-70
2022/06/27 00:18:17;;;;;;;3.65;2.78;;;20.80;99.90;;;;;;4130850;28;20489;-70
2022/06/27 00:20:18;;;;;;;3.75;2.42;;;20.80;99.90;;;;;;4129909;28;20570;-71
2022/06/27 00:22:18;;;;;;;3.75;2.80;;;20.90;99.90;;;;;;4130277;28;20042;-71
2022/06/27 00:24:19;;;;;;;3.47;2.35;;;20.80;99.90;;;;;;4128750;28;20034;-71
2022/06/27 00:26:20;;;;;;;3.20;2.47;;;20.80;99.90;;;;;;4130259;28;20030;-70
2022/06/27 00:28:21;;;;;;;3.83;2.70;;;20.80;99.90;;;;;;4131010;28;20027;-71
2022/06/27 00:30:21;;;;;;;4.05;2.65;;;20.80;99.90;;;;;;4128029;28;20054;-69
2022/06/27 00:32:23;;;;;;;4.25;2.67;;;20.80;99.90;;;;;;4130327;28;20034;-69
2022/06/27 00:34:23;;;;;;;6.07;3.20;;;20.90;99.90;;;;;;4127076;28;20106;-70
2022/06/27 00:36:24;;;;;;;5.93;3.47;;;20.90;99.90;;;;;;4130000;28;20053;-70
2022/06/27 00:38:25;;;;;;;8.88;4.25;;;20.80;99.90;;;;;;4129648;28;20030;-70
2022/06/27 00:40:25;;;;;;;4.75;3.20;;;20.70;99.90;;;;;;4129621;28;20042;-71
2022/06/27 00:42:26;;;;;;;5.65;2.85;;;20.50;99.90;;;;;;4130175;28;20033;-70
2022/06/27 00:44:41;;;;;;;6.60;3.17;;;20.50;99.90;;;;;;4128409;28;20108;-70
2022/06/27 00:46:41;;;;;;;5.80;3.20;;;20.50;99.90;;;;;;4113575;28;20078;-70
2022/06/27 00:48:42;;;;;;;5.15;3.15;;;20.50;99.90;;;;;;4130219;28;20037;-70
2022/06/27 00:50:43;;;;;;;6.72;3.25;;;20.50;99.90;;;;;;4129443;28;20041;-70
2022/06/27 00:52:44;;;;;;;7.18;3.47;;;20.50;99.90;;;;;;4129816;28;20038;-70
2022/06/27 00:54:46;;;;;;;5.22;3.05;;;20.50;99.90;;;;;;4128857;28;20057;-70
2022/06/27 00:56:48;;;;;;;7.60;3.60;;;20.50;99.90;;;;;;4129741;28;20095;-70
2022/06/27 00:58:48;;;;;;;8.43;4.32;;;20.50;99.90;;;;;;4130230;28;20039;-70
2022/06/27 01:00:49;;;;;;;5.10;3.25;;;20.50;99.90;;;;;;4129577;28;20052;-71
2022/06/27 01:02:49;;;;;;;5.35;3.17;;;20.50;99.90;;;;;;4130091;28;20038;-70
2022/06/27 01:04:50;;;;;;;4.53;3.30;;;20.40;99.90;;;;;;4128624;28;20045;-71
2022/06/27 01:06:51;;;;;;;6.10;3.63;;;20.50;99.90;;;;;;4129696;28;20038;-70
2022/06/27 01:08:52;;;;;;;6.10;3.20;;;20.50;99.90;;;;;;4129633;28;20509;-70
2022/06/27 01:10:53;;;;;;;4.53;3.33;;;20.50;99.90;;;;;;4128595;28;20031;-69
2022/06/27 01:12:55;;;;;;;7.43;3.65;;;20.50;99.90;;;;;;4130052;28;20034;-69
2022/06/27 01:14:56;;;;;;;4.70;2.90;;;20.50;99.90;;;;;;4128770;28;20030;-70
2022/06/27 01:16:58;;;;;;;3.53;2.65;;;20.50;99.90;;;;;;4132899;28;20499;-70
2022/06/27 01:19:01;;;;;;;4.78;3.47;;;20.50;99.90;;;;;;4133907;28;20113;-70
2022/06/27 01:21:02;;;;;;;5.38;3.55;;;20.60;99.90;;;;;;4128944;28;20112;-70
2022/06/27 01:23:04;;;;;;;3.55;2.95;;;20.60;99.90;;;;;;4138183;28;20050;-70
2022/06/27 01:25:06;;;;;;;5.28;3.75;;;20.60;99.90;;;;;;4127828;28;20045;-71
2022/06/27 01:27:08;;;;;;;4.47;3.33;;;20.60;99.90;;;;;;4129197;28;20041;-70
2022/06/27 01:29:09;;;;;;;5.63;3.72;;;20.60;99.90;;;;;;4129598;28;20274;-70
2022/06/27 01:31:14;;;;;;;4.25;3.28;;;20.60;99.90;;;;;;4128821;28;20058;-70
2022/06/27 01:33:15;;;;;;;7.10;3.97;;;20.60;99.90;;;;;;4129514;28;20505;-70
2022/06/27 01:35:16;;;;;;;5.45;3.28;;;20.60;99.90;;;;;;4126517;28;20034;-71
2022/06/27 01:37:17;;;;;;;9.07;4.10;;;20.60;99.90;;;;;;4129661;28;20110;-70
2022/06/27 01:39:20;;;;;;;6.28;3.70;;;20.60;99.90;;;;;;4129431;28;20470;-70
2022/06/27 01:41:20;;;;;;;3.92;3.45;;;20.60;99.90;;;;;;4128607;28;20034;-70
2022/06/27 01:43:21;;;;;;;6.10;3.10;;;20.50;99.90;;;;;;4129116;28;20050;-70
2022/06/27 01:45:22;;;;;;;3.83;3.38;;;20.60;99.90;;;;;;4124478;28;20465;-68
2022/06/27 01:47:23;;;;;;;4.60;2.97;;;20.50;99.90;;;;;;4129346;28;20076;-69
2022/06/27 01:49:23;;;;;;;5.38;3.40;;;20.60;99.90;;;;;;4129185;28;20039;-70
2022/06/27 01:51:24;;;;;;;4.50;3.47;;;20.50;99.90;;;;;;4128366;28;20038;-69
2022/06/27 01:53:26;;;;;;;4.97;3.50;;;20.50;99.90;;;;;;4128925;28;20038;-70
2022/06/27 01:55:27;;;;;;;3.90;3.35;;;20.60;99.90;;;;;;4125394;28;20070;-70
2022/06/27 01:57:28;;;;;;;5.15;3.22;;;20.50;99.90;;;;;;4129300;28;20089;-70
2022/06/27 01:59:32;;;;;;;3.92;3.13;;;20.50;99.90;;;;;;4128941;28;20030;-70
2022/06/27 02:01:33;;;;;;;5.47;3.40;;;20.50;99.90;;;;;;4128587;28;20034;-70
2022/06/27 02:03:33;;;;;;;7.30;3.88;;;20.50;99.90;;;;;;4129045;28;20121;-70
2022/06/27 02:05:34;;;;;;;3.60;2.58;;;20.50;99.90;;;;;;4125047;28;20445;-70
2022/06/27 02:07:39;;;;;;;4.43;3.00;;;20.50;99.90;;;;;;4129049;28;20505;-70
2022/06/27 02:09:40;;;;;;;3.78;3.10;;;20.50;99.90;;;;;;4128608;28;20030;-70
2022/06/27 02:11:42;;;;;;;3.65;2.88;;;20.50;99.90;;;;;;4128465;28;20104;-70
2022/06/27 02:13:43;;;;;;;5.40;3.40;;;20.50;99.90;;;;;;4128875;28;20065;-70
2022/06/27 02:16:14;;;;;;;4.53;3.25;;;20.50;99.90;;;;;;4124965;28;20030;-70
2022/06/27 02:18:15;;;;;;;4.53;3.13;;;20.50;99.90;;;;;;4115466;28;20394;-70
2022/06/27 02:20:15;;;;;;;5.10;3.25;;;20.50;99.90;;;;;;4128243;28;20034;-72
2022/06/27 02:22:16;;;;;;;3.92;3.00;;;20.50;99.90;;;;;;4129093;28;20023;-70
2022/06/27 02:24:17;;;;;;;3.40;2.75;;;20.50;99.90;;;;;;4126377;28;20088;-70
2022/06/27 02:26:26;;;;;;;4.65;3.13;;;20.60;99.90;;;;;;4126934;28;20038;-70
2022/06/27 02:28:29;;;;;;;4.53;3.38;;;20.50;99.90;;;;;;4128361;28;20038;-70
2022/06/27 02:30:29;;;;;;;6.45;4.43;;;20.50;99.90;;;;;;4128003;28;20424;-70
2022/06/27 02:32:31;;;;;;;6.55;3.80;;;20.50;99.90;;;;;;4128615;28;20045;-70
2022/06/27 02:34:34;;;;;;;6.70;3.20;;;20.50;99.90;;;;;;4125386;28;20508;-70
2022/06/27 02:36:36;;;;;;;;;;;20.50;99.90;;;;;;4128460;28;20048;-70
2022/06/27 02:38:40;;;;;;;4.87;3.30;;;20.50;99.90;;;;;;4129191;28;20365;-70
2022/06/27 02:40:44;;;;;;;5.57;3.67;;;20.40;99.90;;;;;;4128079;28;20775;-71
2022/06/27 02:42:44;;;;;;;3.92;3.33;;;20.40;99.90;;;;;;4128338;28;20101;-70
2022/06/27 02:44:48;;;;;;;12.00;4.15;;;20.30;99.90;;;;;;4127362;28;20030;-70
2022/06/27 02:46:51;;;;;;;8.48;3.53;;;20.30;99.90;;;;;;4128221;28;20034;-70
2022/06/27 02:48:52;;;;;;;4.85;3.25;;;20.30;99.90;;;;;;4128063;28;20438;-70
2022/06/27 02:50:59;;;;;;;3.75;3.03;;;20.30;99.90;;;;;;4127301;28;20026;-69
2022/06/27 02:53:05;;;;;;;6.13;3.30;;;20.30;99.90;;;;;;4128506;28;20046;-70
2022/06/27 02:55:14;;;;;;;5.03;3.50;;;20.30;99.90;;;;;;4126738;28;20112;-72
2022/06/27 02:57:40;;;;;;;5.38;3.50;;;20.30;99.90;;;;;;4128914;28;20038;-70
2022/06/27 02:59:44;;;;;;;5.38;3.30;;;20.30;99.90;;;;;;4127524;28;20053;-70
2022/06/27 03:01:47;;;;;;;4.20;3.10;;;20.30;99.90;;;;;;4127893;28;20038;-70
2022/06/27 03:03:48;;;;;;;5.15;3.05;;;20.30;99.90;;;;;;4127547;28;20058;-70
2022/06/27 03:06:01;;;;;;;5.05;3.47;;;20.30;99.90;;;;;;4127452;28;20038;-70
2022/06/27 03:08:02;;;;;;;4.80;3.83;;;20.30;99.90;;;;;;4127773;28;20042;-70
2022/06/27 03:10:03;;;;;;;4.57;3.35;;;20.30;99.90;;;;;;4127741;28;20490;-72
2022/06/27 03:12:04;;;;;;;5.82;3.58;;;20.30;99.90;;;;;;4112344;28;20450;-70
2022/06/27 03:14:05;;;;;;;4.47;3.20;;;20.30;99.90;;;;;;4118799;28;20053;-70
2022/06/27 03:16:06;;;;;;;4.28;3.58;;;20.30;99.90;;;;;;4126731;28;20489;-70
2022/06/27 03:18:10;;;;;;;4.35;3.70;;;20.30;99.90;;;;;;4128687;28;20031;-70
2022/06/27 03:20:11;;;;;;;5.55;3.33;;;20.30;99.90;;;;;;4126745;28;20034;-72
2022/06/27 03:22:11;;;;;;;5.38;3.30;;;20.30;99.90;;;;;;4128409;28;20042;-70
2022/06/27 03:24:12;;;;;;;4.85;3.15;;;20.30;99.90;;;;;;4126317;28;20038;-70
2022/06/27 03:26:13;;;;;;;6.03;3.75;;;20.30;99.90;;;;;;4127525;28;20042;-70
2022/06/27 03:28:14;;;;;;;5.80;3.22;;;20.30;99.90;;;;;;4128503;28;20046;-70
2022/06/27 03:30:15;;;;;;;5.22;3.38;;;20.30;99.90;;;;;;4126997;28;20112;-71
2022/06/27 03:32:15;;;;;;;4.32;3.35;;;20.20;99.90;;;;;;4128035;28;20089;-70
2022/06/27 03:34:16;;;;;;;3.25;2.95;;;20.10;99.90;;;;;;4126955;28;20513;-70
2022/06/27 03:36:16;;;;;;;5.35;3.17;;;20.10;99.90;;;;;;4127793;28;20504;-70
2022/06/27 03:38:17;;;;;;;4.90;3.25;;;20.10;99.90;;;;;;4127727;28;20096;-70
2022/06/27 03:40:18;;;;;;;5.97;3.50;;;20.10;99.90;;;;;;4127391;28;20030;-71
2022/06/27 03:42:18;;;;;;;4.70;3.17;;;20.20;99.90;;;;;;4128094;28;20482;-70
2022/06/27 03:44:19;;;;;;;4.28;3.30;;;20.10;99.90;;;;;;4119758;28;20130;-70
2022/06/27 03:46:19;;;;;;;5.88;3.20;;;20.20;99.90;;;;;;4124406;28;20433;-70
2022/06/27 03:50:40;;;;;;;4.18;2.83;;;20.20;99.90;;;;;;4121016;28;20431;-70
2022/06/27 03:52:41;;;;;;;4.07;3.00;;;20.20;99.90;;;;;;4126038;28;20042;-70
2022/06/27 03:54:42;;;;;;;3.63;2.83;;;20.20;99.90;;;;;;4125497;28;20026;-70
2022/06/27 03:56:42;;;;;;;3.47;2.63;;;20.20;99.90;;;;;;4134277;28;20109;-70
2022/06/27 03:58:43;;;;;;;3.65;2.78;;;20.20;99.90;;;;;;4129727;28;20093;-70
2022/06/27 04:00:43;;;;;;;3.50;2.95;;;20.20;99.90;;;;;;4129378;28;20117;-70
2022/06/27 04:02:44;;;;;;;3.95;2.75;;;20.30;99.90;;;;;;4126575;28;20466;-70
2022/06/27 04:04:45;;;;;;;4.35;2.88;;;20.30;99.90;;;;;;4130494;28;20532;-70
2022/06/27 04:06:45;;;;;;;4.47;3.17;;;20.20;99.90;;;;;;4115960;28;20070;-70
2022/06/27 04:08:46;;;;;;;3.63;2.60;;;20.30;99.90;;;;;;4131096;28;20032;-70
2022/06/27 04:10:47;;;;;;;3.67;3.20;;;20.30;99.90;;;;;;4125782;28;20034;-70
2022/06/27 04:12:47;;;;;;;4.07;2.88;;;20.20;99.90;;;;;;4111001;28;20039;-70
2022/06/27 04:14:48;;;;;;;4.07;3.05;;;20.30;99.90;;;;;;4127488;28;20057;-70
2022/06/27 04:16:49;;;;;;;3.72;3.00;;;20.30;99.90;;;;;;4130497;28;20038;-70
2022/06/27 04:18:49;;;;;;;3.60;3.10;;;20.20;99.90;;;;;;4130013;28;20026;-70
2022/06/27 04:20:50;;;;;;;4.38;3.22;;;20.20;99.90;;;;;;4129954;28;20041;-70
2022/06/27 04:22:51;;;;;;;4.05;3.03;;;20.20;99.90;;;;;;4130522;28;20030;-70
2022/06/27 04:24:51;;;;;;;5.55;3.30;;;20.10;99.90;;;;;;4126856;28;20041;-70
2022/06/27 04:26:52;;;;;;;7.43;3.75;;;20.10;99.90;;;;;;4130093;28;20118;-70
2022/06/27 04:28:53;;;;;;;4.20;3.00;;;20.10;99.90;;;;;;4129330;28;20077;-70
2022/06/27 04:30:54;;;;;;;4.85;3.17;;;20.00;99.90;;;;;;4128667;28;20038;-69
2022/06/27 04:32:55;;;;;;;5.70;3.42;;;19.90;99.90;;;;;;4129569;28;20046;-70
2022/06/27 04:34:56;;;;;;;5.47;3.63;;;19.70;99.90;;;;;;4129849;28;20173;-70
2022/06/27 04:36:57;;;;;;;6.88;3.90;;;19.50;99.90;;;;;;4126618;28;20081;-74
2022/06/27 04:38:58;;;;;;;5.65;3.15;;;19.40;99.90;;;;;;4130497;28;20030;-74
2022/06/27 04:40:58;;;;;;;3.78;2.97;;;19.50;99.90;;;;;;4129770;28;20051;-74
2022/06/27 04:42:59;;;;;;;3.28;2.50;;;19.40;99.90;;;;;;4130871;28;20113;-74
2022/06/27 04:45:01;;;;;;;3.35;2.58;;;19.50;99.90;;;;;;4112270;28;20141;-74
2022/06/27 04:47:04;;;;;;;3.10;2.75;;;19.60;99.90;;;;;;4128628;28;20132;-75
2022/06/27 04:49:05;;;;;;;3.17;2.88;;;19.60;99.90;;;;;;4123379;28;20532;-74
2022/06/27 04:51:06;;;;;;;3.50;3.08;;;19.70;99.90;;;;;;4122595;28;20041;-74
2022/06/27 04:53:06;;;;;;;4.50;3.00;;;19.70;99.90;;;;;;4124514;28;20062;-74
2022/06/27 04:55:09;;;;;;;3.58;2.92;;;19.80;99.90;;;;;;4123679;28;20134;-74
2022/06/27 04:57:09;;;;;;;4.65;3.00;;;19.90;99.90;;;;;;4118906;28;20510;-74
2022/06/27 04:59:11;;;;;;;5.03;3.08;;;19.90;99.90;;;;;;4125044;28;20181;-74
2022/06/27 05:01:12;;;;;;;8.10;3.20;;;20.00;99.90;;;;;;4120965;28;20041;-74
2022/06/27 05:03:12;;;;;;;4.95;3.05;;;20.00;99.90;;;;;;4123844;28;20041;-74
2022/06/27 05:05:13;;;;;;;3.63;3.05;;;20.00;99.90;;;;;;4132512;28;20034;-74
2022/06/27 05:07:14;;;;;;;4.18;2.65;;;20.10;99.90;;;;;;4130254;28;20042;-74
2022/06/27 05:09:15;;;;;;;4.20;3.05;;;20.10;99.90;;;;;;4129538;28;20038;-74
2022/06/27 05:11:16;;;;;;;5.85;3.22;;;20.10;99.90;;;;;;4126707;28;20058;-74
2022/06/27 05:13:16;;;;;;;5.13;3.03;;;20.10;99.90;;;;;;4128813;28;20175;-74
2022/06/27 05:15:18;;;;;;;3.70;2.63;;;20.10;99.90;;;;;;4127529;28;20033;-74
2022/06/27 05:17:18;;;;;;;4.47;2.70;;;20.20;99.90;;;;;;4121549;28;20058;-74
2022/06/27 05:19:19;;;;;;;3.88;2.60;;;20.20;99.90;;;;;;4126875;28;20034;-74
2022/06/27 05:21:20;;;;;;;4.05;3.00;;;20.20;99.90;;;;;;4127843;28;20121;-74
2022/06/27 05:23:21;;;;;;;4.18;3.10;;;20.30;99.90;;;;;;4127467;28;20030;-74
2022/06/27 05:25:21;;;;;;;3.33;2.70;;;20.30;99.90;;;;;;4108132;28;20038;-74
2022/06/27 05:27:23;;;;;;;3.60;2.53;;;20.30;99.90;;;;;;4125345;28;20445;-74
2022/06/27 05:29:23;;;;;;;2.70;2.35;;;20.30;99.90;;;;;;4130737;28;20061;-74
2022/06/27 05:31:24;;;;;;;3.95;3.05;;;20.20;99.90;;;;;;4122922;28;20652;-74
2022/06/27 05:33:25;;;;;;;2.97;2.20;;;20.20;99.90;;;;;;4115195;28;20027;-70
2022/06/27 05:35:26;;;;;;;3.47;2.70;;;20.20;99.90;;;;;;4123101;28;20311;-74
2022/06/27 05:37:27;;;;;;;4.30;3.03;;;20.20;99.90;;;;;;4120173;28;20390;-74
2022/06/27 05:39:28;;;;;;;5.80;3.10;;;20.10;99.90;;;;;;4124018;28;20035;-74
2022/06/27 05:41:29;;;;;;;3.45;2.72;;;20.10;99.90;;;;;;4123225;28;20034;-74
2022/06/27 05:43:30;;;;;;;3.22;2.22;;;20.00;99.90;;;;;;4121426;28;20674;-74
2022/06/27 05:45:31;;;;;;;3.15;2.38;;;20.00;99.90;;;;;;4121038;28;20461;-74
2022/06/27 05:47:32;;;;;;;4.30;2.75;;;20.10;99.90;;;;;;4123729;28;20034;-74
2022/06/27 05:49:33;;;;;;;4.15;2.67;;;20.10;99.90;;;;;;4125365;28;20038;-74
2022/06/27 05:51:35;;;;;;;3.38;2.72;;;20.20;99.90;;;;;;4113760;28;20486;-74
2022/06/27 05:53:38;;;;;;;4.05;2.28;;;20.20;99.90;;;;;;4123915;28;20066;-74
2022/06/27 05:55:40;;;;;;;3.40;2.53;;;20.30;99.90;;;;;;4123127;28;20056;-74
2022/06/27 05:57:41;;;;;;;3.08;2.78;;;20.30;99.90;;;;;;4120240;28;20038;-74
2022/06/27 05:59:42;;;;;;;3.13;2.60;;;20.40;99.90;;;;;;4125233;28;20382;-74
2022/06/27 06:01:45;;;;;;;3.10;2.40;;;20.40;99.90;;;;;;4124402;28;20038;-74
2022/06/27 06:03:45;;;;;;;3.42;2.70;;;20.50;99.90;;;;;;4125420;28;20038;-74
2022/06/27 06:05:46;;;;;;;3.72;2.53;;;20.50;99.90;;;;;;4123089;28;20034;-74
2022/06/27 06:07:48;;;;;;;2.83;2.45;;;20.50;99.90;;;;;;4123894;28;20035;-74
2022/06/27 06:09:49;;;;;;;7.38;2.50;;;20.50;99.90;;;;;;4125061;28;20054;-74
2022/06/27 06:11:51;;;;;;;3.20;2.58;;;20.50;99.90;;;;;;4120322;28;20387;-74
2022/06/27 06:13:52;;;;;;;3.67;2.67;;;20.50;99.90;;;;;;4123991;28;20050;-74
2022/06/27 06:15:53;;;;;;;4.97;2.85;;;20.60;99.90;;;;;;4123259;28;20516;-74
2022/06/27 06:17:54;;;;;;;3.55;2.45;;;20.60;99.90;;;;;;4120394;28;20050;-74
2022/06/27 06:19:55;;;;;;;3.35;2.78;;;20.60;99.90;;;;;;4123709;28;20104;-74
2022/06/27 06:21:56;;;;;;;3.85;2.28;;;20.60;99.90;;;;;;4121360;28;20049;-74
2022/06/27 06:23:57;;;;;;;4.72;3.05;;;20.50;99.90;;;;;;4121748;28;20046;-74
2022/06/27 06:25:59;;;;;;;4.07;3.10;;;20.60;99.90;;;;;;4124081;28;20291;-74
2022/06/27 06:28:04;;;;;;;5.47;3.70;;;20.40;99.90;;;;;;4122074;28;20107;-74
2022/06/27 06:30:07;;;;;;;4.60;3.22;;;20.40;99.90;;;;;;4115139;28;20051;-75
2022/06/27 06:32:07;;;;;;;;;;;20.40;99.90;;;;;;4124279;28;20080;-74
2022/06/27 06:34:09;;;;;;;2.92;2.63;;;20.40;99.90;;;;;;4123523;28;19921;-74
2022/06/27 06:36:10;;;;;;;4.60;2.83;;;20.40;99.90;;;;;;4120832;28;20049;-74
2022/06/27 06:38:11;;;;;;;4.30;3.08;;;20.40;99.90;;;;;;4117546;28;20038;-74
2022/06/27 06:40:15;;;;;;;6.18;3.92;;;20.40;99.90;;;;;;4121884;28;20077;-75
2022/06/27 06:42:16;;;;;;;4.88;3.72;;;20.40;99.90;;;;;;4120196;28;20434;-74
2022/06/27 06:44:17;;;;;;;5.03;3.20;;;20.40;99.90;;;;;;4120009;28;20101;-74
2022/06/27 06:46:17;;;;;;;4.68;3.40;;;20.40;99.90;;;;;;4125518;28;20031;-75
2022/06/27 06:48:19;;;;;;;5.38;2.85;;;20.40;99.90;;;;;;4119623;28;20049;-75
2022/06/27 06:50:19;;;;;;;5.10;3.40;;;20.40;99.90;;;;;;4115215;28;20045;-75
2022/06/27 06:52:20;;;;;;;4.88;3.25;;;20.40;99.90;;;;;;4123747;28;20098;-74
2022/06/27 06:54:22;;;;;;;3.78;3.00;;;20.50;99.90;;;;;;4120689;28;20042;-74
2022/06/27 06:56:22;;;;;;;5.88;3.95;;;20.50;99.90;;;;;;4108778;28;20038;-74
2022/06/27 06:58:25;;;;;;;3.55;3.15;;;20.50;99.90;;;;;;4120178;28;20739;-74
2022/06/27 07:00:25;;;;;;;3.80;3.35;;;20.50;99.90;;;;;;4121173;28;20037;-74
2022/06/27 07:02:26;;;;;;;5.40;3.50;;;20.60;99.90;;;;;;4106146;28;20062;-73
2022/06/27 07:04:27;;;;;;;5.15;3.88;;;20.60;99.90;;;;;;4121961;28;20486;-74
2022/06/27 07:06:28;;;;;;;6.32;3.47;;;20.60;99.90;;;;;;4125746;28;20557;-74
2022/06/27 07:08:30;;;;;;;6.10;3.67;;;20.70;99.90;;;;;;4122827;28;20508;-75
2022/06/27 07:10:31;;;;;;;5.35;4.38;;;20.70;99.90;;;;;;4122777;28;20049;-74
2022/06/27 07:12:35;;;;;;;4.43;3.85;;;20.70;99.90;;;;;;4122584;28;20390;-74
2022/06/27 07:14:36;;;;;;;5.38;3.42;;;20.80;99.90;;;;;;4122409;28;20409;-74
2022/06/27 07:16:37;;;;;;;3.92;3.33;;;20.80;99.90;;;;;;4123447;28;20084;-75
2022/06/27 07:18:38;;;;;;;4.35;3.35;;;20.80;99.90;;;;;;4121266;28;20122;-75
2022/06/27 07:20:39;;;;;;;3.90;3.50;;;20.90;99.90;;;;;;4120530;28;20054;-75
2022/06/27 07:22:42;;;;;;;4.50;3.38;;;20.90;99.90;;;;;;4121386;28;20054;-75
2022/06/27 07:24:42;;;;;;;5.10;3.67;;;20.90;99.90;;;;;;4122018;28;20045;-75
2022/06/27 07:26:44;;;;;;;5.63;2.95;;;21.00;99.90;;;;;;4119811;28;20490;-75
2022/06/27 07:28:45;;;;;;;3.83;2.95;;;21.00;99.90;;;;;;4105142;28;20035;-74
2022/06/27 07:30:47;;;;;;;3.60;3.00;;;21.00;99.90;;;;;;4120288;28;20046;-74
2022/06/27 07:32:48;;;;;;;4.35;3.00;;;21.10;99.90;;;;;;4109246;28;20063;-75
2022/06/27 07:34:49;;;;;;;5.35;2.75;;;21.10;99.90;;;;;;4122867;28;20524;-75
2022/06/27 07:36:50;;;;;;;4.82;3.17;;;21.20;99.90;;;;;;4114187;28;20070;-75
2022/06/27 07:38:52;;;;;;;5.63;3.13;;;21.20;99.90;;;;;;4127700;28;20031;-75
2022/06/27 07:40:52;;;;;;;3.55;2.88;;;21.20;99.90;;;;;;4124258;28;20049;-74
2022/06/27 07:42:54;;;;;;;4.03;2.90;;;21.30;99.90;;;;;;4125228;28;20506;-74
2022/06/27 07:44:56;;;;;;;3.63;2.88;;;21.30;99.90;;;;;;4125251;28;20034;-74
2022/06/27 07:46:57;;;;;;;3.90;3.13;;;21.30;99.90;;;;;;4127422;28;20174;-74
2022/06/27 07:48:58;;;;;;;5.07;3.58;;;21.40;99.90;;;;;;4127667;28;20034;-74
2022/06/27 07:51:00;;;;;;;4.25;3.50;;;21.40;99.90;;;;;;4126026;28;20046;-74
2022/06/27 07:53:15;;;;;;;3.47;3.05;;;21.40;99.90;;;;;;4122346;28;20046;-73
2022/06/27 07:55:19;;;;;;;4.28;3.40;;;21.50;99.90;;;;;;4122545;28;20030;-75
2022/06/27 07:57:21;;;;;;;4.70;3.83;;;21.50;99.90;;;;;;4125080;28;20057;-74
2022/06/27 07:59:22;;;;;;;4.50;3.38;;;21.50;99.90;;;;;;4126836;28;20081;-74
2022/06/27 08:01:23;;;;;;;3.67;3.10;;;21.50;99.90;;;;;;4126970;28;20038;-74
2022/06/27 08:03:37;;;;;;;4.10;3.25;;;21.50;99.90;;;;;;4129167;28;20042;-74
2022/06/27 08:05:37;;;;;;;4.25;3.13;;;21.60;99.90;;;;;;4125799;28;20490;-74
2022/06/27 08:07:38;;;;;;;2.75;2.55;;;21.60;99.90;;;;;;4128898;28;20037;-74
2022/06/27 08:09:39;;;;;;;3.72;2.75;;;21.60;99.90;;;;;;4121247;28;20042;-74
2022/06/27 08:11:42;;;;;;;4.20;3.20;;;21.60;99.90;;;;;;4126211;28;20030;-74
2022/06/27 08:13:44;;;;;;;3.63;3.10;;;21.60;99.90;;;;;;4127336;28;20235;-74
2022/06/27 08:15:47;;;;;;;4.78;3.78;;;21.70;99.90;;;;;;4126677;28;20059;-74
2022/06/27 08:17:48;;;;;;;4.13;3.40;;;21.70;99.90;;;;;;4118412;28;20390;-74
2022/06/27 08:19:49;;;;;;;4.43;2.88;;;21.70;99.90;;;;;;4116613;28;20027;-74
2022/06/27 08:21:49;;;;;;;4.95;3.38;;;21.60;99.90;;;;;;4119395;28;20081;-74
2022/06/27 08:23:51;;;;;;;4.53;3.35;;;21.60;99.90;;;;;;4127374;28;20053;-74
2022/06/27 08:25:52;;;;;;;5.75;3.42;;;21.60;99.90;;;;;;4108039;28;20038;-74
2022/06/27 08:27:53;;;;;;;4.20;2.90;;;21.50;99.90;;;;;;4128398;28;20486;-74
2022/06/27 08:29:54;;;;;;;4.25;3.53;;;21.50;99.90;;;;;;4126336;28;20035;-74
2022/06/27 08:31:55;;;;;;;4.13;3.20;;;21.50;99.90;;;;;;4124666;28;20034;-74
2022/06/27 08:34:03;;;;;;;4.28;3.63;;;21.50;99.90;;;;;;4126996;28;20038;-74
2022/06/27 08:36:04;;;;;;;5.05;3.60;;;21.50;99.90;;;;;;4125268;28;20071;-75
2022/06/27 08:38:05;;;;;;;5.95;3.75;;;21.60;99.90;;;;;;4126189;28;20042;-74
2022/06/27 08:40:07;;;;;;;4.97;4.10;;;21.60;99.90;;;;;;4125022;28;20061;-74
2022/06/27 08:42:08;;;;;;;5.25;3.65;;;21.60;99.90;;;;;;4125285;28;20127;-74
2022/06/27 08:44:09;;;;;;;7.80;4.25;;;21.60;99.90;;;;;;4114005;28;20096;-75
2022/06/27 08:46:15;;;;;;;3.83;3.42;;;21.60;99.90;;;;;;4113791;28;20042;-75
2022/06/27 08:48:16;;;;;;;4.55;3.35;;;21.60;99.90;;;;;;4110025;28;20498;-75
2022/06/27 08:50:17;;;;;;;3.35;3.05;;;21.60;99.90;;;;;;4105401;28;20034;-75
2022/06/27 08:52:19;;;;;;;3.70;2.95;;;21.60;99.90;;;;;;4110904;28;20271;-75
2022/06/27 08:54:20;;;;;;;3.58;3.13;;;21.70;99.90;;;;;;4110569;28;20673;-75
2022/06/27 08:56:22;;;;;;;5.03;3.33;;;21.70;99.90;;;;;;4108708;28;20517;-75
2022/06/27 08:58:25;;;;;;;4.55;3.15;;;21.80;99.90;;;;;;4108339;28;21023;-75
2022/06/27 09:00:26;;;;;;;;;;;21.80;99.90;;;;;;4109262;28;20406;-75
2022/06/27 09:02:27;;;;;;;3.97;3.03;;;21.80;99.90;;;;;;4109077;28;19918;-75
2022/06/27 09:04:27;;;;;;;4.15;3.22;;;21.80;99.90;;;;;;4108547;28;20503;-74
2022/06/27 09:06:32;;;;;;;4.90;3.50;;;21.90;99.90;;;;;;4111160;28;20034;-74
2022/06/27 09:08:36;;;;;;;5.97;3.88;;;21.90;99.90;;;;;;4112625;28;20754;-75
2022/06/27 09:10:40;;;;;;;5.05;3.47;;;21.80;99.90;;;;;;4109191;28;20402;-75
2022/06/27 09:12:58;;;;;;;5.07;3.55;;;21.80;99.90;;;;;;4109712;28;20126;-75
2022/06/27 09:14:59;;;;;;;3.85;3.38;;;21.80;99.90;;;;;;4102679;28;20043;-74
2022/06/27 09:17:04;;;;;;;3.50;3.08;;;21.80;99.90;;;;;;4121371;28;20109;-74
2022/06/27 09:19:05;;;;;;;4.20;3.05;;;21.80;99.90;;;;;;4109063;28;20038;-74
2022/06/27 09:21:09;;;;;;;4.18;3.20;;;21.90;99.90;;;;;;4108498;28;20497;-74
2022/06/27 09:23:32;;;;;;;3.30;3.00;;;21.90;99.90;;;;;;4108462;28;20035;-75
2022/06/27 09:25:35;;;;;;;3.63;3.10;;;21.90;99.90;;;;;;4106045;28;20043;-74
2022/06/27 09:27:44;;;;;;;5.07;3.28;;;21.90;99.90;;;;;;4109323;28;20101;-75
2022/06/27 09:29:45;;;;;;;6.22;3.83;;;21.90;99.90;;;;;;4108905;28;20177;-75
2022/06/27 09:31:46;;;;;;;4.03;2.90;;;21.90;99.90;;;;;;4109469;28;20031;-75
2022/06/27 09:33:58;;;;;;;3.70;2.90;;;21.90;99.90;;;;;;4109605;28;20038;-74
2022/06/27 09:36:08;;;;;;;4.85;2.92;;;22.00;99.90;;;;;;4107376;28;20046;-74
2022/06/27 09:38:11;;;;;;;4.50;3.30;;;22.00;99.90;;;;;;4109405;28;20101;-75
2022/06/27 09:40:12;;;;;;;3.83;3.42;;;22.00;99.90;;;;;;4108259;28;20035;-75
2022/06/27 09:42:15;;;;;;;5.38;3.22;;;22.10;99.90;;;;;;4108723;28;20494;-75
2022/06/27 09:44:21;;;;;;;3.42;3.13;;;22.10;99.90;;;;;;4121814;28;20498;-75
2022/06/27 09:46:26;;;;;;;4.28;3.22;;;22.10;99.90;;;;;;4124275;28;20088;-75
2022/06/27 09:48:28;;;;;;;3.72;3.17;;;22.10;99.90;;;;;;4119719;28;20045;-75
2022/06/27 09:50:33;;;;;;;4.60;3.10;;;22.10;99.90;;;;;;4122190;28;20453;-75
2022/06/27 09:52:34;;;;;;;5.57;3.42;;;22.10;99.90;;;;;;4124480;28;20030;-75
2022/06/27 09:54:37;;;;;;;5.72;3.63;;;22.10;99.90;;;;;;4122099;28;20061;-75
2022/06/27 09:56:41;;;;;;;4.18;3.00;;;22.10;99.90;;;;;;4123709;28;20034;-75
2022/06/27 09:58:43;;;;;;;3.22;2.90;;;22.10;99.90;;;;;;4121323;28;20117;-75
2022/06/27 10:00:44;;;;;;;4.60;3.50;;;22.10;99.90;;;;;;4097784;28;20026;-75
2022/06/27 10:02:46;;;;;;;4.10;3.58;;;22.10;99.90;;;;;;4127391;28;20516;-75
2022/06/27 10:04:51;;;;;;;4.80;3.75;;;22.20;99.90;;;;;;4122516;28;20042;-75
2022/06/27 10:06:58;;;;;;;5.55;3.75;;;22.20;99.90;;;;;;4123879;28;20086;-75
2022/06/27 10:09:00;;;;;;;4.90;3.40;;;22.20;99.90;;;;;;4122070;28;20042;-74
2022/06/27 10:11:00;;;;;;;5.68;4.00;;;22.20;99.90;;;;;;4122616;28;20387;-74
2022/06/27 10:13:03;;;;;;;7.47;3.22;;;22.30;99.90;;;;;;4123790;28;20162;-74
2022/06/27 10:15:12;;;;;;;7.20;3.78;;;22.30;99.90;;;;;;4122092;28;20054;-74
2022/06/27 10:17:15;;;;;;;4.88;3.60;;;22.20;99.90;;;;;;4124439;28;20552;-75
2022/06/27 10:19:15;;;;;;;5.07;3.88;;;22.20;99.90;;;;;;4123437;28;20167;-75
2022/06/27 10:21:30;;;;;;;5.22;3.58;;;22.20;99.90;;;;;;4122755;28;20301;-75
2022/06/27 10:23:37;;;;;;;5.70;4.20;;;22.30;99.90;;;;;;4121834;28;20034;-74
2022/06/27 10:25:44;;;;;;;6.28;3.88;;;22.20;99.90;;;;;;4122592;28;20049;-75
2022/06/27 10:27:44;;;;;;;5.95;4.20;;;22.10;99.90;;;;;;4118483;28;20278;-74
2022/06/27 10:29:45;;;;;;;5.00;4.40;;;22.10;99.90;;;;;;4122769;28;20342;-75
2022/06/27 10:31:46;;;;;;;5.00;4.22;;;22.10;99.90;;;;;;4121671;28;20035;-75
2022/06/27 10:33:49;;;;;;;7.32;5.18;;;22.00;99.90;;;;;;4123546;28;20026;-75
2022/06/27 10:37:56;;;;;;;5.28;4.00;;;22.00;99.90;;;;;;4123171;28;20061;-75
2022/06/27 10:40:18;;;;;;;5.78;4.03;;;21.90;99.90;;;;;;4122958;28;20047;-74